Home > Products > Valid Products > MTR

000
SAUS45 KPUB 191657
MTRSPD
METAR KSPD 191656Z AUTO 20018G24KT 25/14 A3002 RMK AO1 SLP107
T02500144





000
SAUS45 KPUB 191557
MTRSPD
METAR KSPD 191556Z AUTO 20013G19KT 23/15 A3002 RMK AO1 SLP111
T02330150





000
SAUS45 KPUB 191457
MTRSPD
METAR KSPD 191456Z AUTO 21014G22KT 21/15 A3003 RMK AO1 SLP116
T02060150 53003





000
SAUS45 KPUB 191357
MTRSPD
METAR KSPD 191356Z AUTO 21012G19KT 17/16 A3003 RMK AO1 SLP116
T01720156





000
SAUS45 KPUB 191257
MTRSPD
METAR KSPD 191256Z AUTO 20010G20KT 16/15 A3002 RMK AO1 SLP111
T01610150





000
SAUS45 KPUB 191157
MTRSPD
METAR KSPD 191156Z AUTO 20015G21KT 17/16 A3002 RMK AO1 SLP106
T01670161 10167 20150 53001





000
SAUS45 KPUB 191057
MTRSPD
METAR KSPD 191056Z AUTO 19013KT 16/16 A3001 RMK AO1 SLP104 T01560156





000
SAUS45 KPUB 190957
MTRSPD
METAR KSPD 190956Z AUTO 19013KT 16/16 A3001 RMK AO1 SLP103 T01560156





000
SAUS45 KPUB 190857
MTRSPD
METAR KSPD 190856Z AUTO 20010KT 15/15 A3002 RMK AO1 SLP102 T01500150
58008





000
SAUS45 KPUB 190758
MTRSPD
METAR KSPD 190756Z AUTO 20010KT 16/15 A3002 RMK AO1 SLP105 T01560150





000
SAUS45 KPUB 190657
MTRSPD
METAR KSPD 190656Z AUTO 19010KT 15/15 A3004 RMK AO1 SLP110 T01500150
402940111





000
SAUS45 KPUB 190557
MTRSPD
METAR KSPD 190556Z AUTO 20011KT 16/16 A3005 RMK AO1 SLP112 T01610156
10250 20161 51001





000
SAUS45 KPUB 190458
MTRSPD
METAR KSPD 190456Z AUTO 21007KT 16/16 A3004 RMK AO1 SLP112 T01610156





000
SAUS45 KPUB 190358 COR
MTRSPD
METAR KSPD 190356Z AUTO 20008KT 17/14 A3005 RMK AO1 SLP113 T01670144





000
SAUS45 KPUB 190357
MTRSPD
METAR KSPD 190356Z AUTO 20008KT 17/14 A3005 RMK AO1 SLP113 T01670144





000
SAUS45 KPUB 190257
MTRSPD
METAR KSPD 190256Z AUTO 18008KT 17/14 A3004 RMK AO1 SLP116 T01720139
53015





000
SAUS45 KPUB 190157
MTRSPD
METAR KSPD 190156Z AUTO 18008KT 19/13 A3002 RMK AO1 SLP116 T01890133





000
SAUS45 KPUB 190057
MTRSPD
METAR KSPD 190056Z AUTO 18008KT 22/13 A3000 RMK AO1 SLP111 T02220133





000
SAUS45 KPUB 182358
MTRSPD
METAR KSPD 182356Z AUTO 17014KT 25/13 A2999 RMK AO1 SLP103 T02500128
10294 20250 55000





000
SAUS45 KPUB 182257
MTRSPD
METAR KSPD 182256Z AUTO 17015KT 27/13 A2998 RMK AO1 PK WND
15026/2211 SLP097 T02670128





000
SAUS45 KPUB 182157
MTRSPD
METAR KSPD 182156Z AUTO 17017G25KT 28/13 A2999 RMK AO1 SLP096
T02780128





000
SAUS45 KPUB 182057
MTRSPD
METAR KSPD 182056Z AUTO 15015G23KT 29/11 A2999 RMK AO1 SLP096
T02890111 56010





000
SAUS45 KPUB 181957
MTRSPD
METAR KSPD 181956Z AUTO 16011G21KT 29/11 A3000 RMK AO1 SLP100
T02890106





000
SAUS45 KPUB 181858
MTRSPD
METAR KSPD 181856Z AUTO 19010KT 29/10 A3001 RMK AO1 SLP103 T02890100





000
SAUS45 KPUB 181758
MTRSPD
METAR KSPD 181756Z AUTO 16014KT 28/09 A3003 RMK AO1 SLP106 T02830094
10283 20111 50001





000
SAUS45 KPUB 181657
MTRSPD
METAR KSPD 181656Z AUTO 16013KT 28/09 A3003 RMK AO1 SLP109 T02830094





000
SAUS45 KPUB 181557
MTRSPD
METAR KSPD 181556Z AUTO 20006KT 27/09 A3003 RMK AO1 SLP108 T02720089





000
SAUS45 KPUB 181457
MTRSPD
METAR KSPD 181456Z AUTO 25004KT 24/12 A3003 RMK AO1 SLP109 T02390122
51009





000
SAUS45 KPUB 181357
MTRSPD
METAR KSPD 181356Z AUTO 23004KT 17/12 A3002 RMK AO1 SLP115 T01670117





000
SAUS45 KPUB 181258
MTRSPD
METAR KSPD 181256Z AUTO 27004KT 12/11 A3001 RMK AO1 SLP113 T01220106





000
SAUS45 KPUB 181158
MTRSPD
METAR KSPD 181156Z AUTO 24007KT 12/11 A2999 RMK AO1 SLP102 T01220106
10156 20122 55001





000
SAUS45 KPUB 181057
MTRSPD
METAR KSPD 181056Z AUTO 24007KT 13/12 A2999 RMK AO1 SLP095 T01330117





000
SAUS45 KPUB 180957
MTRSPD
METAR KSPD 180956Z AUTO 24008KT 13/12 A2999 RMK AO1 SLP096 T01330117





000
SAUS45 KPUB 180857
MTRSPD
METAR KSPD 180856Z AUTO 23008KT 14/12 A3000 RMK AO1 SLP096 T01390117
58001





000
SAUS45 KPUB 180757
MTRSPD
METAR KSPD 180756Z AUTO 24008KT 13/12 A3000 RMK AO1 SLP098 T01330117





000
SAUS45 KPUB 180657
MTRSPD
METAR KSPD 180656Z AUTO 24006KT 14/12 A3000 RMK AO1 SLP097 T01440122
403060117





000
SAUS45 KPUB 180557
MTRSPD
METAR KSPD 180556Z AUTO 23010KT 16/13 A3000 RMK AO1 SLP097 T01560128
10261 20144 58001





000
SAUS45 KPUB 180457
MTRSPD
METAR KSPD 180456Z AUTO 23008KT 15/13 A3001 RMK AO1 SLP103 T01500133





000
SAUS45 KPUB 180357
MTRSPD
METAR KSPD 180356Z AUTO 22006KT 16/13 A3001 RMK AO1 SLP107 T01560133





000
SAUS45 KPUB 180258
MTRSPD
METAR KSPD 180256Z AUTO 23005KT 17/14 A3000 RMK AO1 SLP106 T01720139
53011





000
SAUS45 KPUB 180158
MTRSPD
METAR KSPD 180156Z AUTO 21004KT 18/14 A2999 RMK AO1 SLP102 T01830144





000
SAUS45 KPUB 180057
MTRSPD
METAR KSPD 180056Z AUTO 19006KT 22/15 A2997 RMK AO1 SLP100 T02220150





000
SAUS45 KPUB 172357
MTRSPD
METAR KSPD 172356Z AUTO 19009KT 26/15 A2997 RMK AO1 SLP093 T02610150
10306 20261 55003





000
SAUS45 KPUB 172257
MTRSPD
METAR KSPD 172256Z AUTO 18008KT 28/12 A2997 RMK AO1 SLP087 T02830117





000
SAUS45 KPUB 172157
MTRSPD
METAR KSPD 172156Z AUTO 17010KT 30/07 A2997 RMK AO1 SLP086 T03000067





000
SAUS45 KPUB 172058
MTRSPD
METAR KSPD 172056Z AUTO 17009KT 31/07 A2998 RMK AO1 SLP087 T03060072
57015





000
SAUS45 KPUB 171958
MTRSPD
METAR KSPD 171956Z AUTO 19004KT 30/08 A2999 RMK AO1 SLP092 T03000078





000
SAUS45 KPUB 171857
MTRSPD
METAR KSPD 171856Z AUTO VRB04KT 29/09 A3001 RMK AO1 SLP101 T02940094





000
SAUS45 KPUB 171758
MTRSPD
METAR KSPD 171756Z AUTO 16005KT 29/10 A3003 RMK AO1 SLP106 T02890100
10289 20117 58004





000
SAUS45 KPUB 171657
MTRSPD
METAR KSPD 171656Z AUTO 11003KT 27/10 A3004 RMK AO1 SLP110 T02720100





000
SAUS45 KPUB 171557
MTRSPD
METAR KSPD 171556Z AUTO 00000KT 24/10 A3004 RMK AO1 SLP114 T02440100





000
SAUS45 KPUB 171457
MTRSPD
METAR KSPD 171456Z AUTO 00000KT 22/14 A3004 RMK AO1 SLP117 T02170144
52006





000
SAUS45 KPUB 171357
MTRSPD
METAR KSPD 171356Z AUTO 00000KT 18/13 A3004 RMK AO1 SLP117 T01830128





000
SAUS45 KPUB 171257
MTRSPD
METAR KSPD 171256Z AUTO 26004KT 12/10 A3003 RMK AO1 SLP119 T01170100





000
SAUS45 KPUB 171157
MTRSPD
METAR KSPD 171156Z AUTO 29004KT 12/10 A3002 RMK AO1 SLP112 T01220100
10161 20117 55003





000
SAUS45 KPUB 171057
MTRSPD
METAR KSPD 171056Z AUTO 27005KT 13/11 A3002 RMK AO1 SLP105 T01330106





000
SAUS45 KPUB 170958
MTRSPD
METAR KSPD 170956Z AUTO 28004KT 14/11 A3002 RMK AO1 SLP103 T01390106





000
SAUS45 KPUB 170857
MTRSPD
METAR KSPD 170856Z AUTO 27005KT 14/12 A3003 RMK AO1 SLP106 T01440122
58009





000
SAUS45 KPUB 170757
MTRSPD
METAR KSPD 170756Z AUTO 29004KT 16/14 A3005 RMK AO1 SLP111 T01560139





000
SAUS45 KPUB 170657
MTRSPD
METAR KSPD 170656Z AUTO 22008KT 14/13 A3006 RMK AO1 SLP118 T01440133
403060106





000
SAUS45 KPUB 170557
MTRSPD
METAR KSPD 170556Z AUTO 22007KT 16/14 A3006 RMK AO1 SLP122 T01560139
10267 20156 58007





000
SAUS45 KPUB 170457
MTRSPD
METAR KSPD 170456Z AUTO 22007KT 17/14 A3007 RMK AO1 SLP128 T01670144





000
SAUS45 KPUB 170357
MTRSPD
METAR KSPD 170356Z AUTO 20009KT 17/14 A3008 RMK AO1 SLP132 T01720144





000
SAUS45 KPUB 170357
MTRSPD
METAR KSPD 170356Z AUTO 20009KT 17/14 A3008 RMK AO1 SLP132 T01720144





000
SAUS45 KPUB 170257
MTRSPD
METAR KSPD 170256Z AUTO 20009KT 18/14 A3009 RMK AO1 SLP138 T01830144
53009





000
SAUS45 KPUB 170157
MTRSPD
METAR KSPD 170156Z AUTO 19009KT 21/14 A3007 RMK AO1 SLP135 T02060144





000
SAUS45 KPUB 170057
MTRSPD
METAR KSPD 170056Z AUTO 20015KT 23/14 A3005 RMK AO1 SLP128 T02280139





000
SAUS45 KPUB 162358
MTRSPD
METAR KSPD 162356Z AUTO 19014KT 27/13 A3006 RMK AO1 SLP123 T02670128
10306 20256 55005





000
SAUS45 KPUB 162257
MTRSPD
METAR KSPD 162256Z AUTO 19014KT 29/13 A3005 RMK AO1 SLP118 T02890133





000
SAUS45 KPUB 162157
MTRSPD
METAR KSPD 162156Z AUTO 20011KT 30/13 A3006 RMK AO1 SLP119 T03000128





000
SAUS45 KPUB 162057
MTRSPD
METAR KSPD 162056Z AUTO 19011G17KT 31/13 A3007 RMK AO1 SLP122
T03060128 56024





000
SAUS45 KPUB 161957
MTRSPD
METAR KSPD 161956Z AUTO 19008G14KT 160V230 29/13 A3010 RMK AO1
SLP131 T02940133





000
SAUS45 KPUB 161857
MTRSPD
METAR KSPD 161856Z AUTO 23006G14KT 28/13 A3012 RMK AO1 SLP143
T02830133





    US Dept of Commerce
    National Oceanic and Atmospheric Administration
    National Weather Service
    1325 East West Highway
    Silver Spring, MD 20910
    Page Author: NWS Internet Services Team
Disclaimer
Information Quality
Credits
Glossary
Privacy Policy
Freedom of Information Act (FOIA)
About Us
Career Opportunities